Time;durP1;ratioP1;P1;durP2;ratioP2;P2;SDS_P1;SDS_P2;PMS_P1;PMS_P2;Temp;Humidity;BMP_temperature;BMP_pressure;BME280_temperature;BME280_humidity;BME280_pressure;Samples;Min_cycle;Max_cycle;Signal;HPM_P1;HPM_P2
2023/06/08 04:02:06;;;;;;;7.50;6.40;;;17.30;97.30;;;;;;5290508;23;20898;-89
2023/06/08 04:04:31;;;;;;;11.60;5.73;;;17.30;97.30;;;;;;4947899;29;20526;-87
2023/06/08 04:07:01;;;;;;;7.50;6.13;;;17.30;97.30;;;;;;4950572;29;20507;-88
2023/06/08 04:09:28;;;;;;;7.10;5.87;;;17.30;97.30;;;;;;4949423;29;20199;-86
2023/06/08 04:11:54;;;;;;;6.50;4.50;;;17.40;97.30;;;;;;4949949;28;20458;-87
2023/06/08 04:14:20;;;;;;;11.87;8.73;;;17.40;97.30;;;;;;4945659;28;20759;-86
2023/06/08 04:16:45;;;;;;;5.17;4.37;;;17.30;97.30;;;;;;4941250;29;20517;-86
2023/06/08 04:19:13;;;;;;;10.80;7.80;;;17.40;97.30;;;;;;4946670;29;20514;-87
2023/06/08 04:21:41;;;;;;;6.83;4.23;;;17.40;97.30;;;;;;4939917;28;20232;-87
2023/06/08 04:24:07;;;;;;;4.70;4.40;;;17.40;97.30;;;;;;4939516;29;20423;-90
2023/06/08 04:26:32;;;;;;;6.83;6.03;;;17.40;97.30;;;;;;4951643;28;20426;-87
2023/06/08 04:28:58;;;;;;;6.77;5.60;;;17.40;97.30;;;;;;4940043;28;20226;-87
2023/06/08 04:31:23;;;;;;;8.80;5.00;;;17.40;97.30;;;;;;4952763;29;20294;-89
2023/06/08 04:33:51;;;;;;;4.93;4.63;;;17.40;97.30;;;;;;4950883;29;20195;-88
2023/06/08 04:36:25;;;;;;;6.57;5.37;;;17.40;97.30;;;;;;4943575;29;20231;-87
2023/06/08 04:38:53;;;;;;;5.27;4.90;;;17.40;97.30;;;;;;4949364;29;20423;-88
2023/06/08 04:41:33;;;;;;;7.00;4.93;;;17.40;97.30;;;;;;4951750;28;20984;-87
2023/06/08 04:44:01;;;;;;;8.93;5.87;;;17.50;97.30;;;;;;4953600;29;20796;-90
2023/06/08 04:46:37;;;;;;;7.13;4.80;;;17.50;97.30;;;;;;4949186;29;20475;-87
2023/06/08 04:49:03;;;;;;;9.53;5.80;;;17.50;97.30;;;;;;4953058;28;20944;-88
2023/06/08 04:51:31;;;;;;;7.60;5.70;;;17.50;97.30;;;;;;4953918;28;20537;-88
2023/06/08 04:54:05;;;;;;;5.10;4.80;;;17.50;97.30;;;;;;4952360;28;20553;-87
2023/06/08 04:56:33;;;;;;;8.30;5.77;;;17.60;97.30;;;;;;4952727;29;20796;-87
2023/06/08 04:59:07;;;;;;;9.70;6.30;;;17.60;97.30;;;;;;4951115;28;20434;-91
2023/06/08 05:01:32;;;;;;;6.30;4.50;;;17.60;97.30;;;;;;4947737;28;20471;-88
2023/06/08 05:03:58;;;;;;;7.00;5.70;;;17.60;97.30;;;;;;4951438;29;20433;-88
2023/06/08 05:06:23;;;;;;;15.13;6.13;;;17.60;97.30;;;;;;4954093;29;20617;-90
2023/06/08 05:08:51;;;;;;;7.10;4.93;;;17.70;97.30;;;;;;4953005;29;20194;-89
2023/06/08 05:11:16;;;;;;;6.47;4.30;;;17.70;97.30;;;;;;4951647;29;20206;-88
2023/06/08 05:13:42;;;;;;;8.27;4.80;;;17.70;97.30;;;;;;4944514;29;20524;-88
2023/06/08 05:16:12;;;;;;;5.07;3.50;;;17.70;97.30;;;;;;4950595;28;20210;-88
2023/06/08 05:18:40;;;;;;;5.50;4.10;;;17.70;97.30;;;;;;4953840;29;20183;-87
2023/06/08 05:21:06;;;;;;;7.97;6.90;;;17.80;97.30;;;;;;4953246;28;20505;-91
2023/06/08 05:23:31;;;;;;;5.97;4.07;;;17.70;97.30;;;;;;4953418;28;20927;-89
2023/06/08 05:25:57;;;;;;;6.47;5.10;;;17.70;97.30;;;;;;4953880;29;20198;-88
2023/06/08 05:28:22;;;;;;;4.63;4.27;;;17.70;97.30;;;;;;4962456;29;20182;-88
2023/06/08 05:30:48;;;;;;;10.57;6.50;;;17.80;97.30;;;;;;4961888;29;20657;-88
2023/06/08 05:33:13;;;;;;;7.50;5.10;;;17.80;97.30;;;;;;4961466;28;20266;-90
2023/06/08 05:35:39;;;;;;;7.80;6.40;;;17.80;97.30;;;;;;4962120;29;20183;-90
2023/06/08 05:38:05;;;;;;;8.47;4.60;;;17.80;97.30;;;;;;4963084;29;20585;-89
2023/06/08 05:40:32;;;;;;;9.80;5.67;;;17.80;97.30;;;;;;4955615;28;20166;-90
2023/06/08 05:42:58;;;;;;;9.13;6.63;;;17.90;97.30;;;;;;4953851;29;20203;-91
2023/06/08 05:45:23;;;;;;;5.03;4.73;;;17.90;97.30;;;;;;4964600;29;20941;-88
2023/06/08 05:47:49;;;;;;;8.70;5.70;;;17.90;97.30;;;;;;4962190;29;20242;-88
2023/06/08 05:50:14;;;;;;;6.90;4.87;;;17.90;97.30;;;;;;4954810;29;20591;-88
2023/06/08 05:52:42;;;;;;;8.40;5.70;;;17.90;97.30;;;;;;4954879;28;20207;-87
2023/06/08 05:55:08;;;;;;;9.97;5.57;;;17.90;97.30;;;;;;4952651;29;20226;-89
2023/06/08 05:57:35;;;;;;;4.93;4.63;;;18.00;97.30;;;;;;4936053;29;20443;-90
2023/06/08 06:00:03;;;;;;;8.43;4.73;;;18.00;97.30;;;;;;4946031;29;20503;-89
2023/06/08 06:02:28;;;;;;;5.27;4.43;;;18.00;97.30;;;;;;4954164;28;20266;-91
2023/06/08 06:04:54;;;;;;;9.27;6.43;;;18.00;97.30;;;;;;4952926;29;20434;-89
2023/06/08 06:07:19;;;;;;;8.23;5.17;;;18.00;97.30;;;;;;4954388;28;20181;-88
2023/06/08 06:09:45;;;;;;;5.97;5.40;;;18.10;97.30;;;;;;4946872;28;20418;-88
2023/06/08 06:12:10;;;;;;;7.87;6.00;;;18.10;97.30;;;;;;4952423;28;20711;-90
2023/06/08 06:14:40;;;;;;;8.77;5.00;;;18.10;97.30;;;;;;4952731;29;20374;-90
2023/06/08 06:17:07;;;;;;;5.83;5.07;;;18.10;97.30;;;;;;4950899;29;20625;-88
2023/06/08 06:19:39;;;;;;;5.07;4.77;;;18.10;97.30;;;;;;4954117;29;20427;-89
2023/06/08 06:22:06;;;;;;;8.77;4.30;;;18.10;97.30;;;;;;4947090;29;20451;-89
2023/06/08 06:24:31;;;;;;;4.43;4.13;;;18.10;97.30;;;;;;4954664;29;20813;-92
2023/06/08 06:26:58;;;;;;;5.53;4.07;;;18.10;97.30;;;;;;4977118;28;20427;-91
2023/06/08 06:29:24;;;;;;;6.93;3.67;;;18.10;97.30;;;;;;4976945;28;20189;-90
2023/06/08 06:31:52;;;;;;;5.90;3.67;;;18.10;97.30;;;;;;4972198;28;20458;-92
2023/06/08 06:34:19;;;;;;;8.30;4.20;;;18.10;97.30;;;;;;4954023;29;20478;-89
2023/06/08 06:36:45;;;;;;;5.80;4.33;;;18.10;97.30;;;;;;4952599;29;20955;-89
2023/06/08 06:39:12;;;;;;;7.77;5.30;;;18.10;97.30;;;;;;4952419;29;20431;-88
2023/06/08 06:41:38;;;;;;;5.07;4.63;;;18.10;97.30;;;;;;4952331;28;20199;-88
2023/06/08 06:44:03;;;;;;;6.93;5.13;;;18.10;97.30;;;;;;4950265;29;20964;-89
2023/06/08 06:46:29;;;;;;;7.13;5.23;;;18.20;97.30;;;;;;4950709;29;20183;-88
2023/06/08 06:48:55;;;;;;;5.40;4.57;;;18.20;97.30;;;;;;4952480;29;20594;-92
2023/06/08 06:51:21;;;;;;;7.70;4.23;;;18.20;97.30;;;;;;4946486;28;20202;-88
2023/06/08 06:53:46;;;;;;;3.93;3.67;;;18.20;97.30;;;;;;4950192;28;20206;-91
2023/06/08 06:56:13;;;;;;;3.93;3.60;;;18.20;97.30;;;;;;4952025;29;20533;-88
2023/06/08 06:58:44;;;;;;;6.03;4.30;;;18.20;97.30;;;;;;4950683;29;20270;-88
2023/06/08 07:01:11;;;;;;;8.13;5.03;;;18.30;97.30;;;;;;4944156;29;20495;-88
2023/06/08 07:03:40;;;;;;;6.97;4.97;;;18.30;97.30;;;;;;4949054;29;20458;-90
2023/06/08 07:06:06;;;;;;;5.10;4.50;;;18.30;97.30;;;;;;4949986;28;20434;-88
2023/06/08 07:08:33;;;;;;;6.27;4.27;;;18.30;97.30;;;;;;4951974;28;20967;-90
2023/06/08 07:11:01;;;;;;;9.80;5.20;;;18.30;97.30;;;;;;4950657;29;20442;-90
2023/06/08 07:13:27;;;;;;;5.67;4.83;;;18.40;97.30;;;;;;4951087;29;20473;-88
2023/06/08 07:15:53;;;;;;;14.70;4.30;;;18.40;97.30;;;;;;4952001;29;20513;-90
2023/06/08 07:18:18;;;;;;;4.00;3.60;;;18.40;97.30;;;;;;4951445;29;20509;-90
2023/06/08 07:20:44;;;;;;;6.90;3.67;;;18.40;97.30;;;;;;4951234;29;20271;-92
2023/06/08 07:23:09;;;;;;;11.03;3.80;;;18.40;97.30;;;;;;4951050;29;20222;-89
2023/06/08 07:25:37;;;;;;;11.50;4.17;;;18.40;97.30;;;;;;4950959;29;20234;-90
2023/06/08 07:28:02;;;;;;;6.43;5.70;;;18.40;97.30;;;;;;4951323;29;20657;-90
2023/06/08 07:30:28;;;;;;;10.20;5.23;;;18.40;97.30;;;;;;4950082;28;20441;-89
2023/06/08 07:32:53;;;;;;;14.93;6.07;;;18.50;97.30;;;;;;4950421;29;20198;-89
2023/06/08 07:35:19;;;;;;;7.47;5.50;;;18.50;97.30;;;;;;4946902;29;20187;-91
2023/06/08 07:37:45;;;;;;;9.20;5.27;;;18.50;97.30;;;;;;4946397;29;20186;-89
2023/06/08 07:40:11;;;;;;;4.17;3.93;;;18.50;97.30;;;;;;4949230;28;20432;-89
2023/06/08 07:42:37;;;;;;;4.70;3.53;;;18.60;97.30;;;;;;4945613;29;20602;-90
2023/06/08 07:45:03;;;;;;;4.00;3.63;;;18.60;97.30;;;;;;4950288;29;20426;-89
2023/06/08 07:47:33;;;;;;;6.00;3.80;;;18.60;97.30;;;;;;4949281;29;20242;-91
2023/06/08 07:49:59;;;;;;;5.03;3.93;;;18.60;97.30;;;;;;4943764;29;20419;-91
2023/06/08 07:52:24;;;;;;;3.97;3.77;;;18.60;97.30;;;;;;4951617;28;20445;-91
2023/06/08 07:54:50;;;;;;;6.37;4.10;;;18.60;97.30;;;;;;4951655;29;20279;-89
2023/06/08 07:57:15;;;;;;;8.27;3.73;;;18.70;97.30;;;;;;4951694;29;20186;-89
2023/06/08 07:59:43;;;;;;;5.50;4.10;;;18.70;97.30;;;;;;4949746;29;20179;-89
2023/06/08 08:02:13;;;;;;;4.97;4.30;;;18.70;97.30;;;;;;4949224;28;20235;-90
2023/06/08 08:04:38;;;;;;;4.67;4.37;;;18.80;97.30;;;;;;4947741;28;20469;-89
2023/06/08 08:07:05;;;;;;;4.37;3.63;;;18.80;97.30;;;;;;4955673;29;20458;-90
2023/06/08 08:09:33;;;;;;;2.93;2.80;;;18.80;97.30;;;;;;4955279;29;20187;-90
2023/06/08 08:12:03;;;;;;;9.27;4.20;;;18.90;97.30;;;;;;4954206;28;20457;-91
2023/06/08 08:14:36;;;;;;;4.97;2.97;;;18.90;97.30;;;;;;4948532;29;20470;-90
2023/06/08 08:17:02;;;;;;;7.00;4.20;;;18.90;97.30;;;;;;4954747;29;20430;-90
2023/06/08 08:19:27;;;;;;;6.53;4.30;;;19.00;97.30;;;;;;4954965;29;20482;-92
2023/06/08 08:21:53;;;;;;;3.93;3.70;;;19.00;97.30;;;;;;4955124;28;20570;-91
2023/06/08 08:24:18;;;;;;;3.70;3.53;;;19.00;97.30;;;;;;4955276;29;20258;-89
2023/06/08 08:26:44;;;;;;;6.23;3.80;;;19.10;97.30;;;;;;4955374;29;20705;-89
2023/06/08 08:29:09;;;;;;;6.10;4.83;;;19.10;97.30;;;;;;4955152;29;20187;-89
2023/06/08 08:31:35;;;;;;;6.37;4.40;;;19.10;97.30;;;;;;4954192;29;20757;-90
2023/06/08 08:34:03;;;;;;;4.50;3.60;;;19.10;97.30;;;;;;4952616;29;20206;-89
2023/06/08 08:36:29;;;;;;;4.80;3.03;;;19.10;97.30;;;;;;4953166;29;20187;-90
2023/06/08 08:38:55;;;;;;;3.97;2.90;;;19.10;97.30;;;;;;4954729;29;20434;-91
2023/06/08 08:41:24;;;;;;;4.57;4.03;;;19.10;97.30;;;;;;4954331;29;20282;-89
2023/06/08 08:43:55;;;;;;;5.90;3.40;;;19.10;97.30;;;;;;4955574;28;20179;-92
2023/06/08 08:46:23;;;;;;;5.80;3.53;;;19.20;97.30;;;;;;4953485;29;20837;-90
2023/06/08 08:48:55;;;;;;;7.67;4.83;;;19.20;97.30;;;;;;4953544;29;20470;-91
2023/06/08 08:51:23;;;;;;;5.57;3.70;;;19.20;97.30;;;;;;4946642;28;20446;-89
2023/06/08 08:53:50;;;;;;;3.70;2.90;;;19.30;97.30;;;;;;4953895;29;20471;-92
2023/06/08 08:56:25;;;;;;;3.80;3.33;;;19.30;97.30;;;;;;4952656;28;21120;-89
2023/06/08 08:58:53;;;;;;;12.80;4.07;;;19.30;97.30;;;;;;4951970;29;20426;-89
2023/06/08 09:01:19;;;;;;;5.33;3.93;;;19.30;97.30;;;;;;4945288;28;20602;-90
2023/06/08 09:03:46;;;;;;;4.87;3.63;;;;;;;;;;4953067;29;21140;-91
2023/06/08 09:06:11;;;;;;;6.37;3.67;;;19.40;97.30;;;;;;4955386;28;20935;-88
2023/06/08 09:08:38;;;;;;;10.60;4.43;;;19.40;97.30;;;;;;4955923;29;20518;-90
2023/06/08 09:11:09;;;;;;;4.40;4.00;;;19.40;97.30;;;;;;4946546;29;20300;-90
2023/06/08 09:13:36;;;;;;;4.00;3.80;;;19.40;97.30;;;;;;4953228;29;20643;-91
2023/06/08 09:16:15;;;;;;;10.73;5.80;;;19.40;97.30;;;;;;4951837;28;20459;-89
2023/06/08 09:18:42;;;;;;;6.23;3.60;;;19.40;97.30;;;;;;4953743;29;20438;-90
2023/06/08 09:21:21;;;;;;;4.47;4.17;;;19.40;97.30;;;;;;4953619;29;20794;-89
2023/06/08 09:24:03;;;;;;;3.27;3.07;;;19.30;97.30;;;;;;4952623;28;20430;-88
2023/06/08 09:26:32;;;;;;;5.87;3.53;;;19.20;97.30;;;;;;4945569;29;20829;-90
2023/06/08 09:29:03;;;;;;;9.70;4.20;;;19.20;97.30;;;;;;4952636;29;20462;-87
2023/06/08 09:31:31;;;;;;;6.93;4.23;;;19.10;97.30;;;;;;4951447;29;20533;-87
2023/06/08 09:34:10;;;;;;;4.90;3.17;;;19.10;97.30;;;;;;4952088;29;21015;-88
2023/06/08 09:36:39;;;;;;;5.63;4.07;;;19.00;97.30;;;;;;4954148;28;20418;-86
2023/06/08 09:39:07;;;;;;;5.63;4.20;;;19.00;97.30;;;;;;4953852;28;20437;-85
2023/06/08 09:41:33;;;;;;;5.87;4.50;;;18.90;97.30;;;;;;4954068;28;20446;-87
2023/06/08 09:43:59;;;;;;;4.20;3.40;;;18.80;97.30;;;;;;4943798;29;20437;-89
2023/06/08 09:46:36;;;;;;;6.50;5.23;;;18.80;97.30;;;;;;4952721;28;20434;-88
2023/06/08 09:49:06;;;;;;;7.70;5.80;;;18.70;97.30;;;;;;4952031;29;20490;-86
2023/06/08 09:51:33;;;;;;;3.70;3.07;;;18.60;97.30;;;;;;4952621;29;20492;-87
2023/06/08 09:54:00;;;;;;;4.47;4.13;;;18.60;97.30;;;;;;4951806;28;20498;-89
2023/06/08 09:56:27;;;;;;;5.80;4.30;;;18.50;97.30;;;;;;4952588;29;20431;-88
2023/06/08 09:58:56;;;;;;;7.40;4.47;;;18.40;97.30;;;;;;4936120;29;20566;-88
2023/06/08 10:01:28;;;;;;;12.87;5.43;;;18.30;97.30;;;;;;4960620;28;20490;-87
2023/06/08 10:03:57;;;;;;;5.60;4.87;;;18.30;97.30;;;;;;4952079;29;20940;-86
2023/06/08 10:06:25;;;;;;;3.70;3.50;;;18.30;97.30;;;;;;4952828;29;20437;-86
2023/06/08 10:08:55;;;;;;;9.97;4.77;;;18.30;97.30;;;;;;4952495;29;20422;-86
2023/06/08 10:11:21;;;;;;;8.53;4.47;;;18.30;97.30;;;;;;4944693;29;20446;-86
2023/06/08 10:13:55;;;;;;;7.03;4.63;;;18.30;97.30;;;;;;4950365;29;20557;-87
2023/06/08 10:16:23;;;;;;;5.60;4.03;;;18.30;97.30;;;;;;4970713;23;20419;-85
2023/06/08 10:18:50;;;;;;;5.30;4.07;;;18.40;97.30;;;;;;4944219;28;20462;-83
2023/06/08 10:21:16;;;;;;;8.63;5.00;;;18.40;97.30;;;;;;4946743;29;20429;-85
2023/06/08 10:23:42;;;;;;;7.70;4.97;;;18.50;97.30;;;;;;4950717;29;20438;-85
2023/06/08 10:26:08;;;;;;;10.30;5.83;;;18.50;97.30;;;;;;4952673;28;20960;-85
2023/06/08 10:28:33;;;;;;;6.20;4.93;;;18.60;97.30;;;;;;4944997;28;20440;-87
2023/06/08 10:31:34;;;;;;;8.20;4.30;;;18.70;97.30;;;;;;4948956;29;20422;-87
2023/06/08 10:34:05;;;;;;;10.40;6.53;;;18.80;97.30;;;;;;4950473;29;20203;-87
2023/06/08 10:36:39;;;;;;;9.10;5.17;;;18.90;97.30;;;;;;4947266;29;20450;-87
2023/06/08 10:39:10;;;;;;;6.60;5.80;;;19.00;97.30;;;;;;4948204;29;20438;-87
2023/06/08 10:41:42;;;;;;;4.40;4.10;;;19.00;97.30;;;;;;4947792;29;20423;-87
2023/06/08 10:44:22;;;;;;;5.63;5.00;;;19.10;97.30;;;;;;4948477;29;20442;-86
2023/06/08 10:46:55;;;;;;;9.50;6.27;;;19.20;97.30;;;;;;4951013;29;20455;-87
2023/06/08 10:49:21;;;;;;;5.47;3.97;;;19.20;97.30;;;;;;4939814;29;20518;-87
2023/06/08 10:51:52;;;;;;;12.13;7.50;;;19.30;97.30;;;;;;4937572;29;20507;-88
2023/06/08 10:54:23;;;;;;;6.53;4.90;;;19.30;97.30;;;;;;4948138;29;20207;-88
2023/06/08 10:56:52;;;;;;;26.23;5.30;;;19.30;97.30;;;;;;4950205;29;20559;-87
2023/06/08 10:59:30;;;;;;;6.00;5.00;;;19.40;97.30;;;;;;4942689;29;20988;-88
2023/06/08 11:02:00;;;;;;;6.50;4.23;;;19.40;97.30;;;;;;4943140;29;20451;-88
2023/06/08 11:04:29;;;;;;;7.53;4.80;;;19.40;97.30;;;;;;4947809;29;21025;-88
2023/06/08 11:06:58;;;;;;;6.40;4.73;;;19.50;97.30;;;;;;4944191;29;20446;-87
2023/06/08 11:09:24;;;;;;;4.20;3.90;;;19.50;97.30;;;;;;4943806;29;20435;-88
2023/06/08 11:11:50;;;;;;;5.97;4.13;;;19.60;97.30;;;;;;4951082;29;20964;-89
2023/06/08 11:14:20;;;;;;;4.60;4.30;;;19.70;97.30;;;;;;4948904;29;20233;-88
2023/06/08 11:16:53;;;;;;;5.90;3.57;;;19.80;97.30;;;;;;4943386;29;20616;-88
2023/06/08 11:19:20;;;;;;;5.97;3.90;;;19.90;97.30;;;;;;4942119;29;20419;-88
2023/06/08 11:21:47;;;;;;;3.80;3.60;;;20.00;97.30;;;;;;4949905;29;20897;-88
2023/06/08 11:24:14;;;;;;;5.00;3.23;;;20.10;97.30;;;;;;4947737;29;21208;-88
2023/06/08 11:26:40;;;;;;;5.20;4.40;;;20.20;97.30;;;;;;4936326;29;20442;-87
2023/06/08 11:29:06;;;;;;;5.77;4.60;;;20.50;97.30;;;;;;4947806;29;20509;-88
2023/06/08 11:31:38;;;;;;;5.17;3.80;;;20.70;97.30;;;;;;4944401;29;20712;-88
2023/06/08 11:34:04;;;;;;;3.10;2.90;;;20.90;97.30;;;;;;4946863;29;20513;-87
2023/06/08 11:36:30;;;;;;;5.77;3.70;;;20.80;97.30;;;;;;4947557;29;20782;-89
2023/06/08 11:38:56;;;;;;;6.83;3.93;;;20.90;97.30;;;;;;4949634;28;20597;-88
2023/06/08 11:41:25;;;;;;;7.87;4.97;;;21.00;97.30;;;;;;4952223;29;20422;-88
2023/06/08 11:43:51;;;;;;;7.47;4.33;;;21.10;97.30;;;;;;4949359;29;20697;-88
2023/06/08 11:46:18;;;;;;;4.77;4.50;;;21.10;97.30;;;;;;4945917;29;20458;-87
2023/06/08 11:48:43;;;;;;;4.53;3.43;;;21.10;97.30;;;;;;4946035;29;20238;-88
2023/06/08 11:51:09;;;;;;;6.50;3.80;;;21.10;97.30;;;;;;4955518;29;20418;-89
2023/06/08 11:53:35;;;;;;;4.70;3.50;;;21.10;97.30;;;;;;4954236;29;20286;-87
2023/06/08 11:56:03;;;;;;;5.63;3.53;;;21.20;97.30;;;;;;4955298;29;20618;-87
2023/06/08 11:58:29;;;;;;;5.67;3.20;;;21.30;97.30;;;;;;4955769;28;20856;-88
2023/06/08 12:01:09;;;;;;;3.37;2.33;;;21.50;97.30;;;;;;4945301;29;20434;-87
2023/06/08 12:03:55;;;;;;;5.33;3.23;;;21.70;97.30;;;;;;4953933;29;20796;-87
2023/06/08 12:06:25;;;;;;;8.93;3.43;;;21.90;95.50;;;;;;4945773;29;20557;-88
2023/06/08 12:08:52;;;;;;;8.50;3.03;;;22.00;95.30;;;;;;4955638;28;20501;-88
2023/06/08 12:11:19;;;;;;;3.50;2.70;;;22.10;95.30;;;;;;4954479;28;20425;-86
2023/06/08 12:13:44;;;;;;;4.87;2.87;;;22.10;94.30;;;;;;4946968;29;20467;-86
2023/06/08 12:16:11;;;;;;;2.90;2.63;;;22.10;94.00;;;;;;4946128;29;20431;-88
2023/06/08 12:18:40;;;;;;;5.77;3.00;;;22.10;94.30;;;;;;4953497;29;20294;-88
2023/06/08 12:21:10;;;;;;;8.73;5.03;;;22.20;93.40;;;;;;4952185;29;20435;-87
2023/06/08 12:23:36;;;;;;;4.90;4.00;;;22.30;93.50;;;;;;4953500;29;20592;-87
2023/06/08 12:26:02;;;;;;;3.57;3.20;;;22.40;93.70;;;;;;4953929;29;20507;-87
2023/06/08 12:28:27;;;;;;;12.50;5.23;;;22.50;93.20;;;;;;4953283;29;20222;-87
2023/06/08 12:30:57;;;;;;;4.57;3.53;;;22.70;93.60;;;;;;4953283;29;20446;-88
2023/06/08 12:33:24;;;;;;;4.50;2.90;;;23.00;92.40;;;;;;4948811;29;20253;-88
2023/06/08 12:35:51;;;;;;;4.67;3.10;;;23.30;92.50;;;;;;4954633;28;20426;-88
2023/06/08 12:38:17;;;;;;;3.83;2.83;;;23.50;93.50;;;;;;4954366;28;20937;-87
2023/06/08 12:40:47;;;;;;;2.80;2.60;;;23.80;91.50;;;;;;4950297;29;20438;-87
2023/06/08 12:43:13;;;;;;;3.33;2.27;;;24.00;91.40;;;;;;4948448;29;20805;-88
2023/06/08 12:45:39;;;;;;;4.67;2.53;;;24.20;89.40;;;;;;4948762;29;20987;-86
2023/06/08 12:48:04;;;;;;;2.40;2.07;;;24.40;88.30;;;;;;4951569;29;20474;-87
2023/06/08 12:50:30;;;;;;;2.40;1.93;;;24.50;89.10;;;;;;4951095;28;20191;-87
2023/06/08 12:52:57;;;;;;;3.10;2.90;;;24.60;89.70;;;;;;4946630;29;20207;-88
2023/06/08 12:55:22;;;;;;;9.63;4.30;;;24.60;88.60;;;;;;4938897;29;20183;-91
2023/06/08 12:57:50;;;;;;;2.53;2.33;;;24.50;88.90;;;;;;4945538;29;20526;-89
2023/06/08 13:00:17;;;;;;;2.30;2.10;;;24.40;89.70;;;;;;4944013;29;20275;-87
2023/06/08 13:02:43;;;;;;;3.20;3.00;;;24.50;91.20;;;;;;4946620;29;20420;-87
2023/06/08 13:05:08;;;;;;;3.97;3.33;;;24.50;90.80;;;;;;4948772;29;20988;-87
2023/06/08 13:07:35;;;;;;;3.10;2.90;;;24.60;89.40;;;;;;4946523;29;20191;-87
2023/06/08 13:10:01;;;;;;;4.50;3.10;;;24.60;90.30;;;;;;4944995;29;20235;-88
2023/06/08 13:12:28;;;;;;;3.40;3.20;;;24.70;89.80;;;;;;4949122;29;20427;-87
2023/06/08 13:14:54;;;;;;;4.87;3.20;;;24.70;89.30;;;;;;4947466;29;20455;-87
2023/06/08 13:17:20;;;;;;;2.47;2.33;;;24.70;89.00;;;;;;4941526;29;20463;-88
2023/06/08 13:19:46;;;;;;;3.70;2.63;;;24.70;89.80;;;;;;4949392;29;20422;-86
2023/06/08 13:22:12;;;;;;;3.57;3.40;;;24.70;89.40;;;;;;4946089;29;20175;-86
2023/06/08 13:24:41;;;;;;;5.00;2.93;;;24.80;88.50;;;;;;4949361;29;20553;-87
2023/06/08 13:27:07;;;;;;;4.17;3.20;;;24.90;88.10;;;;;;4949764;29;20481;-86
2023/06/08 13:29:33;;;;;;;5.63;3.20;;;24.90;88.30;;;;;;4938221;29;20458;-89
2023/06/08 13:31:58;;;;;;;4.20;3.10;;;24.90;88.30;;;;;;4942852;29;20187;-87
2023/06/08 13:34:24;;;;;;;3.90;3.73;;;25.00;88.90;;;;;;4944697;29;20214;-87
2023/06/08 13:36:50;;;;;;;3.77;2.80;;;25.00;88.70;;;;;;4945465;29;20191;-87
2023/06/08 13:39:16;;;;;;;6.63;3.23;;;25.00;88.60;;;;;;4941189;29;20182;-88
2023/06/08 13:41:42;;;;;;;9.50;4.23;;;25.10;89.20;;;;;;4946286;29;20810;-88
2023/06/08 13:44:08;;;;;;;5.93;4.30;;;25.10;88.20;;;;;;4949818;29;20186;-87
2023/06/08 13:46:34;;;;;;;4.30;3.10;;;25.30;89.60;;;;;;4953166;29;20454;-87
2023/06/08 13:49:01;;;;;;;5.40;4.60;;;25.50;88.90;;;;;;4952742;29;20183;-84
2023/06/08 13:51:27;;;;;;;4.17;3.63;;;25.90;88.10;;;;;;4952314;29;20432;-84
2023/06/08 13:53:54;;;;;;;4.20;3.50;;;26.20;87.90;;;;;;4951836;29;20615;-86
2023/06/08 13:56:20;;;;;;;5.57;2.77;;;26.40;85.40;;;;;;4947133;29;20418;-86
2023/06/08 13:58:45;;;;;;;6.37;4.40;;;26.50;85.50;;;;;;4946035;29;20976;-85
2023/06/08 14:01:11;;;;;;;3.20;3.10;;;26.60;85.50;;;;;;4943928;29;20438;-86
2023/06/08 14:03:37;;;;;;;4.47;3.57;;;26.70;85.70;;;;;;4951263;28;20190;-83
2023/06/08 14:06:04;;;;;;;4.67;4.00;;;26.70;84.20;;;;;;4950278;29;20186;-85
2023/06/08 14:08:30;;;;;;;4.37;3.53;;;26.70;83.70;;;;;;4951152;29;20828;-86
2023/06/08 14:10:56;;;;;;;6.27;3.73;;;26.60;84.60;;;;;;4948405;29;20482;-86
2023/06/08 14:13:25;;;;;;;4.60;3.03;;;26.60;85.20;;;;;;4951304;29;20458;-85
2023/06/08 14:15:50;;;;;;;4.30;3.10;;;26.50;85.60;;;;;;4943907;29;20175;-86
2023/06/08 14:18:16;;;;;;;5.07;3.90;;;26.50;84.60;;;;;;4944679;29;21040;-86
2023/06/08 14:20:44;;;;;;;2.60;2.37;;;26.40;84.70;;;;;;4946464;28;20179;-85
2023/06/08 14:23:09;;;;;;;3.53;3.33;;;26.40;85.40;;;;;;4937911;29;20540;-87
2023/06/08 14:25:38;;;;;;;4.57;3.17;;;26.40;85.90;;;;;;4951347;29;20434;-86
2023/06/08 14:28:06;;;;;;;11.93;3.80;;;26.40;84.20;;;;;;4944898;29;20203;-84
2023/06/08 14:30:32;;;;;;;7.57;3.70;;;26.50;86.00;;;;;;4938347;29;20829;-90
2023/06/08 14:32:58;;;;;;;3.70;3.20;;;26.80;87.20;;;;;;4944567;29;20550;-87
2023/06/08 14:35:36;;;;;;;5.93;3.70;;;27.10;85.90;;;;;;4949526;29;20189;-86
2023/06/08 14:38:01;;;;;;;11.93;3.20;;;27.40;84.00;;;;;;4949056;29;20450;-87
2023/06/08 14:40:27;;;;;;;2.90;2.50;;;27.60;83.80;;;;;;4944536;29;20474;-86
2023/06/08 14:42:52;;;;;;;3.60;3.23;;;27.90;85.10;;;;;;4947551;29;20184;-87
2023/06/08 14:45:18;;;;;;;6.40;3.53;;;28.10;84.30;;;;;;4950116;29;20216;-85
2023/06/08 14:47:43;;;;;;;2.50;2.30;;;28.20;83.40;;;;;;4943971;29;20203;-87
2023/06/08 14:50:11;;;;;;;4.97;3.60;;;28.20;82.10;;;;;;4943782;29;20171;-85
2023/06/08 14:52:36;;;;;;;5.60;2.77;;;28.10;81.90;;;;;;4950008;29;20555;-85
2023/06/08 14:55:02;;;;;;;6.90;2.67;;;28.10;79.70;;;;;;4947970;29;20434;-87
2023/06/08 14:57:28;;;;;;;3.20;3.10;;;28.00;78.80;;;;;;4945629;29;20270;-86
2023/06/08 14:59:53;;;;;;;4.40;2.70;;;27.70;78.60;;;;;;4941466;29;20190;-86
2023/06/08 15:02:19;;;;;;;2.30;2.10;;;27.40;76.10;;;;;;4947954;29;20443;-86
2023/06/08 15:04:44;;;;;;;3.17;2.53;;;27.20;75.70;;;;;;4949069;28;20172;-86
2023/06/08 15:07:10;;;;;;;10.10;2.83;;;27.10;76.90;;;;;;4946208;29;20207;-86
2023/06/08 15:09:35;;;;;;;3.17;2.37;;;27.00;75.70;;;;;;4938110;29;20286;-86
2023/06/08 15:12:01;;;;;;;3.07;2.13;;;26.80;76.40;;;;;;4939290;29;20187;-86
2023/06/08 15:14:31;;;;;;;2.67;2.50;;;26.60;76.40;;;;;;4946101;28;20214;-87
2023/06/08 15:16:57;;;;;;;2.17;2.00;;;26.30;76.90;;;;;;4944465;29;20721;-87
2023/06/08 15:19:23;;;;;;;2.70;2.47;;;26.00;77.40;;;;;;4945359;29;20431;-85
2023/06/08 15:21:48;;;;;;;4.77;3.40;;;25.70;78.20;;;;;;4943773;29;20716;-86
2023/06/08 15:24:14;;;;;;;3.27;2.50;;;25.30;79.00;;;;;;4947364;29;20180;-87
2023/06/08 15:26:39;;;;;;;8.43;3.33;;;25.00;80.10;;;;;;4940696;29;20674;-85
2023/06/08 15:29:05;;;;;;;4.80;2.97;;;24.80;81.20;;;;;;4938815;29;20180;-86
2023/06/08 15:31:30;;;;;;;5.33;2.47;;;24.70;82.20;;;;;;4942864;29;20237;-87
2023/06/08 15:33:56;;;;;;;4.17;3.63;;;24.50;82.70;;;;;;4948643;29;20245;-86
2023/06/08 15:36:22;;;;;;;5.30;3.67;;;24.30;84.00;;;;;;4946179;29;20183;-85
2023/06/08 15:38:47;;;;;;;3.73;2.70;;;24.10;84.60;;;;;;4948147;29;20183;-87
2023/06/08 15:41:13;;;;;;;4.33;2.97;;;23.90;85.80;;;;;;4951323;29;20246;-87
2023/06/08 15:43:40;;;;;;;6.30;3.73;;;23.80;86.40;;;;;;4945550;29;20213;-85
2023/06/08 15:46:05;;;;;;;1.80;1.70;;;23.70;86.00;;;;;;4935019;29;20184;-86
2023/06/08 15:48:31;;;;;;;5.70;3.50;;;23.60;85.70;;;;;;4934544;29;21059;-87
2023/06/08 15:50:56;;;;;;;3.93;2.13;;;23.50;85.40;;;;;;4943734;29;20200;-86
2023/06/08 15:53:23;;;;;;;1.73;1.63;;;23.50;86.20;;;;;;4943066;29;20297;-86
2023/06/08 15:55:51;;;;;;;4.50;2.90;;;23.40;85.60;;;;;;4946656;29;20194;-86
2023/06/08 15:58:17;;;;;;;4.87;2.83;;;23.20;86.50;;;;;;4947858;29;20452;-86
2023/06/08 16:00:43;;;;;;;2.17;2.03;;;22.90;86.30;;;;;;4950970;29;20445;-85
2023/06/08 16:03:08;;;;;;;4.53;2.33;;;22.80;86.30;;;;;;4961572;29;20463;-85
2023/06/08 16:05:34;;;;;;;2.60;2.50;;;22.60;86.90;;;;;;4962551;29;20183;-86
2023/06/08 16:07:59;;;;;;;3.23;2.60;;;22.50;86.80;;;;;;4961567;29;20783;-85
2023/06/08 16:10:26;;;;;;;1.83;1.63;;;22.40;88.00;;;;;;4959808;29;20195;-86
2023/06/08 16:12:51;;;;;;;2.37;2.17;;;22.30;88.10;;;;;;4954830;29;20271;-87
2023/06/08 16:15:17;;;;;;;1.70;1.60;;;22.30;88.20;;;;;;4961731;29;20426;-85
2023/06/08 16:17:46;;;;;;;1.90;1.53;;;22.20;87.90;;;;;;4971756;23;20615;-87
2023/06/08 16:20:14;;;;;;;4.00;1.93;;;22.10;87.70;;;;;;4945894;29;20563;-89
2023/06/08 16:22:41;;;;;;;2.67;2.43;;;22.00;88.10;;;;;;4944681;29;20439;-90
2023/06/08 16:25:07;;;;;;;1.57;1.43;;;22.00;87.70;;;;;;4936493;28;20900;-87
2023/06/08 16:27:33;;;;;;;2.63;2.50;;;21.90;88.00;;;;;;4941629;29;20546;-88
2023/06/08 16:30:01;;;;;;;9.00;2.90;;;21.80;88.10;;;;;;4932940;29;20608;-87
2023/06/08 16:32:26;;;;;;;2.50;1.70;;;21.70;88.30;;;;;;4931200;29;20180;-88
2023/06/08 16:34:52;;;;;;;4.33;2.77;;;21.60;88.70;;;;;;4925858;29;20463;-87
2023/06/08 16:37:17;;;;;;;1.70;1.60;;;21.50;88.50;;;;;;4933665;29;20270;-89
2023/06/08 16:39:45;;;;;;;2.27;1.80;;;21.40;88.40;;;;;;4933490;29;20673;-87
2023/06/08 16:42:13;;;;;;;3.53;2.60;;;21.30;88.30;;;;;;4936003;29;20183;-90
2023/06/08 16:44:43;;;;;;;1.93;1.70;;;21.30;88.60;;;;;;4931058;29;20468;-91
2023/06/08 16:47:17;;;;;;;2.90;2.37;;;21.20;88.80;;;;;;4928040;29;20447;-87